Time;durP1;ratioP1;P1;durP2;ratioP2;P2;SDS_P1;SDS_P2;PMS_P1;PMS_P2;Temp;Humidity;BMP_temperature;BMP_pressure;BME280_temperature;BME280_humidity;BME280_pressure;Samples;Min_cycle;Max_cycle;Signal;HPM_P1;HPM_P2
2021/10/23 00:01:20;;;;;;;5.20;2.47;;;10.70;99.90;;;;;;4920026;29;20040;-93
2021/10/23 00:03:55;;;;;;;7.95;2.90;;;10.70;99.90;;;;;;4917119;29;20055;-93
2021/10/23 00:06:39;;;;;;;8.30;3.17;;;10.80;99.90;;;;;;4928927;29;20066;-93
2021/10/23 00:09:13;;;;;;;9.60;3.13;;;10.70;99.90;;;;;;4917800;29;20153;-90
2021/10/23 00:11:46;;;;;;;6.15;3.15;;;10.10;99.90;;;;;;4934368;29;20051;-93
2021/10/23 00:14:22;;;;;;;4.40;2.28;;;10.70;99.90;;;;;;4914864;29;20048;-91
2021/10/23 00:17:05;;;;;;;7.25;2.53;;;11.30;99.90;;;;;;4916573;29;20056;-88
2021/10/23 00:19:39;;;;;;;7.95;3.00;;;10.70;99.90;;;;;;4917627;29;20066;-88
2021/10/23 00:22:14;;;;;;;7.25;2.80;;;10.70;99.90;;;;;;4912248;29;20048;-89
2021/10/23 00:24:45;;;;;;;;;;;10.70;99.90;;;;;;4893832;29;20074;-90
2021/10/23 00:27:17;;;;;;;10.00;2.73;;;10.70;99.90;;;;;;4922795;29;19941;-89
2021/10/23 00:30:00;;;;;;;10.82;3.05;;;10.70;99.90;;;;;;4932396;29;20054;-87
2021/10/23 00:32:30;;;;;;;7.03;3.30;;;10.70;99.90;;;;;;4916888;29;20054;-89
2021/10/23 00:35:11;;;;;;;7.82;2.97;;;10.70;99.90;;;;;;4954211;29;20059;-88
2021/10/23 00:37:39;;;;;;;9.23;3.40;;;10.70;99.90;;;;;;4931177;29;20067;-88
2021/10/23 00:40:11;;;;;;;6.70;2.63;;;10.70;99.90;;;;;;4929877;29;20051;-89
2021/10/23 00:42:40;;;;;;;8.90;3.28;;;10.70;99.90;;;;;;4912168;28;20059;-89
2021/10/23 00:45:14;;;;;;;7.18;2.90;;;10.70;99.90;;;;;;4944403;29;20056;-90
2021/10/23 00:47:45;;;;;;;;;;;10.70;99.90;;;;;;4936897;28;20059;-91
2021/10/23 00:50:17;;;;;;;5.78;3.15;;;10.60;99.90;;;;;;4911391;29;19922;-90
2021/10/23 00:52:53;;;;;;;3.40;2.60;;;10.60;99.90;;;;;;4925753;29;20507;-90
2021/10/23 00:55:24;;;;;;;6.57;2.80;;;10.60;99.90;;;;;;4910146;29;20047;-89
2021/10/23 00:57:54;;;;;;;11.10;3.78;;;10.50;99.90;;;;;;4927260;29;20062;-91
2021/10/23 01:00:30;;;;;;;7.00;3.10;;;10.50;99.90;;;;;;4916666;29;20047;-90
2021/10/23 01:02:59;;;;;;;7.65;2.92;;;10.50;99.90;;;;;;4910468;29;20047;-91
2021/10/23 01:05:29;;;;;;;8.20;3.33;;;10.50;99.90;;;;;;4910706;29;20066;-91
2021/10/23 01:08:14;;;;;;;11.27;3.20;;;10.50;99.90;;;;;;4945541;29;20051;-90
2021/10/23 01:10:50;;;;;;;6.85;3.00;;;10.40;99.90;;;;;;4910601;29;20060;-89
2021/10/23 01:13:23;;;;;;;5.18;2.80;;;10.50;99.90;;;;;;4925413;28;20048;-89
2021/10/23 01:15:53;;;;;;;6.93;2.28;;;10.40;99.90;;;;;;4902260;28;20046;-91
2021/10/23 01:18:27;;;;;;;10.18;4.28;;;10.30;99.90;;;;;;4972849;28;20063;-89
2021/10/23 01:21:02;;;;;;;7.32;3.05;;;10.40;99.90;;;;;;4930374;29;20048;-91
2021/10/23 01:23:34;;;;;;;6.50;3.28;;;10.40;99.90;;;;;;4914792;28;20055;-88
2021/10/23 01:26:05;;;;;;;5.60;3.55;;;10.40;99.90;;;;;;4935774;29;20043;-89
2021/10/23 01:28:39;;;;;;;10.65;3.13;;;10.40;99.90;;;;;;4928014;29;20055;-87
2021/10/23 01:31:13;;;;;;;7.53;3.00;;;10.40;99.90;;;;;;4917024;29;20039;-88
2021/10/23 01:33:44;;;;;;;10.07;2.90;;;10.00;99.90;;;;;;4902570;29;20048;-89
2021/10/23 01:36:17;;;;;;;10.65;4.55;;;10.40;99.90;;;;;;4916681;29;20055;-89
2021/10/23 01:38:48;;;;;;;7.10;3.45;;;10.40;99.90;;;;;;4945886;29;20047;-87
2021/10/23 01:41:24;;;;;;;7.18;2.85;;;11.80;99.90;;;;;;4926514;29;20070;-91
2021/10/23 01:43:55;;;;;;;5.20;2.88;;;10.30;99.90;;;;;;4931651;29;20063;-90
2021/10/23 01:46:29;;;;;;;7.68;3.22;;;10.40;99.90;;;;;;4946564;29;20303;-90
2021/10/23 01:48:59;;;;;;;9.10;2.95;;;10.40;99.90;;;;;;4921582;29;20066;-89
2021/10/23 01:51:44;;;;;;;9.38;2.65;;;10.30;99.90;;;;;;4946080;29;20066;-88
2021/10/23 01:54:15;;;;;;;8.50;3.05;;;10.40;99.90;;;;;;4909064;29;20056;-89
2021/10/23 01:56:58;;;;;;;9.38;3.22;;;10.30;99.90;;;;;;4939225;29;20055;-91
2021/10/23 01:59:37;;;;;;;8.55;3.03;;;10.40;99.90;;;;;;4949445;29;20043;-88
2021/10/23 02:02:10;;;;;;;6.35;2.30;;;10.40;99.90;;;;;;4929425;29;20054;-90
2021/10/23 02:04:41;;;;;;;8.38;3.90;;;10.40;99.90;;;;;;4932624;29;20051;-90
2021/10/23 02:07:14;;;;;;;16.30;2.72;;;10.40;99.90;;;;;;4912997;29;20063;-88
2021/10/23 02:09:44;;;;;;;9.43;3.85;;;10.50;99.90;;;;;;4910191;29;20067;-89
2021/10/23 02:12:18;;;;;;;11.25;3.33;;;10.40;99.90;;;;;;4903815;29;20051;-92
2021/10/23 02:14:51;;;;;;;8.35;3.55;;;10.40;99.90;;;;;;4954430;29;20071;-89
2021/10/23 02:17:25;;;;;;;5.90;3.13;;;10.40;99.90;;;;;;4932489;29;20054;-89
2021/10/23 02:20:00;;;;;;;9.32;4.18;;;10.40;99.90;;;;;;4917090;29;20055;-91
2021/10/23 02:22:30;;;;;;;5.10;2.47;;;10.40;99.90;;;;;;4927084;29;20051;-91
2021/10/23 02:25:03;;;;;;;5.30;2.53;;;10.40;99.90;;;;;;4916917;29;20062;-88
2021/10/23 02:27:32;;;;;;;8.10;4.23;;;10.40;99.90;;;;;;4948391;29;20074;-90
2021/10/23 02:30:10;;;;;;;9.27;2.90;;;10.40;99.90;;;;;;4930334;29;20302;-87
2021/10/23 02:32:43;;;;;;;9.20;2.85;;;10.40;99.90;;;;;;4928952;29;20566;-89
2021/10/23 02:35:25;;;;;;;6.30;2.50;;;10.50;99.90;;;;;;4939195;29;20055;-92
2021/10/23 02:38:02;;;;;;;7.93;3.10;;;10.40;99.90;;;;;;4911394;29;20146;-89
2021/10/23 02:40:44;;;;;;;7.90;2.92;;;10.40;99.90;;;;;;4931450;29;20842;-88
2021/10/23 02:43:19;;;;;;;7.93;3.35;;;10.50;99.90;;;;;;4919413;29;20431;-92
2021/10/23 02:46:09;;;;;;;5.28;2.80;;;10.40;99.90;;;;;;4907263;29;20051;-88
2021/10/23 02:48:44;;;;;;;12.15;4.68;;;10.40;99.90;;;;;;4941471;29;20051;-89
2021/10/23 02:51:29;;;;;;;4.10;2.58;;;10.40;99.90;;;;;;4945516;29;20058;-88
2021/10/23 02:54:03;;;;;;;6.10;2.75;;;10.40;99.90;;;;;;4924811;29;20059;-88
2021/10/23 02:56:33;;;;;;;6.03;3.13;;;10.40;99.90;;;;;;4913258;29;20051;-88
2021/10/23 02:59:05;;;;;;;7.55;2.97;;;9.30;99.90;;;;;;4915981;29;20051;-89
2021/10/23 03:01:38;;;;;;;12.10;3.25;;;11.60;99.90;;;;;;4929716;29;20043;-88
2021/10/23 03:04:10;;;;;;;7.20;3.47;;;10.40;99.90;;;;;;4918147;29;20372;-88
2021/10/23 03:06:55;;;;;;;10.10;3.88;;;10.40;99.90;;;;;;4946807;29;20078;-91
2021/10/23 03:09:29;;;;;;;9.73;4.85;;;10.40;99.90;;;;;;4929391;29;20110;-92
2021/10/23 03:12:00;;;;;;;9.63;5.25;;;10.80;99.90;;;;;;4900810;29;20039;-90
2021/10/23 03:14:30;;;;;;;13.32;5.57;;;10.40;99.90;;;;;;4925827;29;20086;-91
2021/10/23 03:17:03;;;;;;;11.27;5.20;;;10.40;99.90;;;;;;4941899;29;20035;-87
2021/10/23 03:19:31;;;;;;;11.30;6.28;;;10.40;99.90;;;;;;4930693;29;20058;-88
2021/10/23 03:22:05;;;;;;;19.13;6.05;;;10.50;99.90;;;;;;4933415;29;20050;-90
2021/10/23 03:24:33;;;;;;;15.02;6.10;;;10.40;99.90;;;;;;4916695;29;20051;-89
2021/10/23 03:27:02;;;;;;;12.38;6.25;;;10.40;99.90;;;;;;4921672;29;20051;-88
2021/10/23 03:29:31;;;;;;;12.95;6.88;;;10.40;99.90;;;;;;4915932;29;20048;-91
2021/10/23 03:32:00;;;;;;;16.00;6.82;;;10.40;99.90;;;;;;4902475;29;20047;-91
2021/10/23 03:34:51;;;;;;;18.83;8.18;;;10.40;99.90;;;;;;4938540;29;20047;-90
2021/10/23 03:37:21;;;;;;;13.07;6.68;;;10.40;99.90;;;;;;4936470;29;20063;-90
2021/10/23 03:39:51;;;;;;;18.90;5.72;;;10.40;99.90;;;;;;4926310;29;20050;-91
2021/10/23 03:42:24;;;;;;;12.82;5.78;;;10.40;99.90;;;;;;4927151;29;20047;-88
2021/10/23 03:44:55;;;;;;;15.25;5.43;;;10.40;99.90;;;;;;4926495;29;20052;-89
2021/10/23 03:47:35;;;;;;;16.38;5.00;;;10.40;99.90;;;;;;4942671;29;20055;-89
2021/10/23 03:50:07;;;;;;;14.57;4.65;;;10.40;99.90;;;;;;4913420;29;20050;-89
2021/10/23 03:52:39;;;;;;;13.30;5.55;;;10.40;99.90;;;;;;4942732;29;20062;-87
2021/10/23 03:55:23;;;;;;;10.68;5.13;;;10.40;99.90;;;;;;4931690;29;20059;-88
2021/10/23 03:58:07;;;;;;;9.20;4.03;;;10.40;99.90;;;;;;4932502;28;20047;-88
2021/10/23 04:00:40;;;;;;;8.65;4.22;;;10.40;99.90;;;;;;4914914;29;20562;-89
2021/10/23 04:03:09;;;;;;;13.77;5.32;;;10.40;99.90;;;;;;4920592;29;20059;-87
2021/10/23 04:05:53;;;;;;;9.57;3.92;;;10.30;99.90;;;;;;4921677;29;20062;-88
2021/10/23 04:08:33;;;;;;;7.88;3.28;;;9.90;99.90;;;;;;4915682;29;20047;-89
2021/10/23 04:11:10;;;;;;;7.85;3.25;;;10.30;99.90;;;;;;4903016;29;20047;-87
2021/10/23 04:13:53;;;;;;;9.55;3.67;;;10.40;99.90;;;;;;4946733;29;20059;-89
2021/10/23 04:16:29;;;;;;;7.88;3.40;;;10.40;99.90;;;;;;4907058;29;20063;-90
2021/10/23 04:19:13;;;;;;;9.70;3.75;;;10.30;99.90;;;;;;4892394;29;20051;-89
2021/10/23 04:21:44;;;;;;;6.18;3.30;;;10.40;99.90;;;;;;4925939;29;20074;-90
2021/10/23 04:24:18;;;;;;;11.30;4.38;;;10.40;99.90;;;;;;4927415;29;20058;-90
2021/10/23 04:26:52;;;;;;;12.65;3.72;;;10.40;99.90;;;;;;4934085;29;20058;-88
2021/10/23 04:29:31;;;;;;;9.35;3.55;;;10.40;99.90;;;;;;4922189;29;20519;-89
2021/10/23 04:32:01;;;;;;;6.45;3.00;;;10.40;99.90;;;;;;4924679;29;20056;-88
2021/10/23 04:34:30;;;;;;;9.82;3.15;;;10.40;99.90;;;;;;4894443;29;20415;-89
2021/10/23 04:37:00;;;;;;;9.95;3.88;;;10.40;99.90;;;;;;4918446;29;20059;-90
2021/10/23 04:39:30;;;;;;;5.68;2.38;;;10.30;99.90;;;;;;4905827;29;20370;-87
2021/10/23 04:42:02;;;;;;;6.73;2.97;;;10.40;99.90;;;;;;4939958;29;20044;-90
2021/10/23 04:44:32;;;;;;;9.23;2.90;;;10.40;99.90;;;;;;4909414;29;20067;-89
2021/10/23 04:47:01;;;;;;;7.35;3.30;;;10.40;99.90;;;;;;4906106;29;20048;-88
2021/10/23 04:49:31;;;;;;;5.38;2.45;;;10.40;99.90;;;;;;4916894;29;20048;-88
2021/10/23 04:51:59;;;;;;;10.07;3.00;;;10.40;99.90;;;;;;4922181;29;20059;-90
2021/10/23 04:54:28;;;;;;;5.60;2.40;;;10.40;99.90;;;;;;4888136;29;20064;-91
2021/10/23 04:57:06;;;;;;;8.27;3.45;;;10.40;99.90;;;;;;4924140;29;20059;-90
2021/10/23 04:59:36;;;;;;;11.82;3.78;;;10.40;99.90;;;;;;4917578;29;20055;-90
2021/10/23 05:02:07;;;;;;;9.48;2.45;;;10.40;99.90;;;;;;4905754;29;20048;-88
2021/10/23 05:04:39;;;;;;;7.22;2.45;;;10.60;99.90;;;;;;4908247;24;20130;-89
2021/10/23 05:07:12;;;;;;;6.43;2.50;;;10.50;99.90;;;;;;4903528;29;20055;-89
2021/10/23 05:09:41;;;;;;;4.55;2.70;;;10.40;99.90;;;;;;4905933;29;20397;-88
2021/10/23 05:12:19;;;;;;;7.70;3.55;;;10.40;99.90;;;;;;4890221;29;20056;-89
2021/10/23 05:14:54;;;;;;;8.65;4.00;;;10.40;99.90;;;;;;4891172;29;20063;-89
2021/10/23 05:17:53;;;;;;;5.55;2.90;;;10.40;99.90;;;;;;4908937;29;20058;-89
2021/10/23 05:20:21;;;;;;;7.57;2.60;;;10.50;99.90;;;;;;4887250;29;20056;-90
2021/10/23 05:23:01;;;;;;;6.35;2.97;;;10.40;99.90;;;;;;4904839;29;20055;-90
2021/10/23 05:25:34;;;;;;;10.15;2.83;;;10.50;99.90;;;;;;4889474;29;20051;-89
2021/10/23 05:28:20;;;;;;;6.65;2.78;;;10.40;99.90;;;;;;4896720;29;20076;-88
2021/10/23 05:30:55;;;;;;;6.53;2.53;;;10.40;99.90;;;;;;4899027;29;20067;-90
2021/10/23 05:33:30;;;;;;;11.88;3.50;;;10.50;99.90;;;;;;4907624;29;20052;-91
2021/10/23 05:36:03;;;;;;;7.22;2.42;;;10.40;99.90;;;;;;4902622;29;20056;-90
2021/10/23 05:38:33;;;;;;;7.82;2.67;;;10.40;99.90;;;;;;4881694;29;20055;-88
2021/10/23 05:41:11;;;;;;;5.30;2.63;;;10.40;99.90;;;;;;4907951;29;20052;-88
2021/10/23 05:43:44;;;;;;;6.75;2.58;;;10.40;99.90;;;;;;4912124;29;20055;-91
2021/10/23 05:46:14;;;;;;;6.93;2.38;;;10.40;99.90;;;;;;4891522;29;20504;-91
2021/10/23 05:48:48;;;;;;;6.15;3.15;;;10.40;99.90;;;;;;4905777;29;20044;-88
2021/10/23 05:51:18;;;;;;;7.10;2.65;;;10.40;99.90;;;;;;4891632;29;20060;-88
2021/10/23 05:53:53;;;;;;;7.50;3.35;;;10.40;99.90;;;;;;4884415;29;20052;-89
2021/10/23 05:56:24;;;;;;;10.48;2.08;;;10.40;99.90;;;;;;4892637;29;20063;-89
2021/10/23 05:59:18;;;;;;;5.55;2.25;;;10.40;99.90;;;;;;4859707;24;20057;-89
2021/10/23 06:01:49;;;;;;;7.35;2.65;;;10.40;99.90;;;;;;4869793;29;20488;-88
2021/10/23 06:04:23;;;;;;;7.68;2.50;;;10.40;99.90;;;;;;4870143;29;20386;-89
2021/10/23 06:07:00;;;;;;;6.43;2.17;;;10.40;99.90;;;;;;4886095;29;20073;-90
2021/10/23 06:09:41;;;;;;;6.97;3.25;;;10.40;99.90;;;;;;4856179;29;20057;-88
2021/10/23 06:12:20;;;;;;;5.25;2.33;;;10.40;99.90;;;;;;4866586;29;20059;-92
2021/10/23 06:15:26;;;;;;;11.55;4.10;;;10.40;99.90;;;;;;4872107;29;20045;-88
2021/10/23 06:17:55;;;;;;;7.93;2.17;;;10.60;99.90;;;;;;4860754;29;20069;-93
2021/10/23 06:20:26;;;;;;;6.10;2.40;;;10.40;99.90;;;;;;4851285;29;20053;-91
2021/10/23 06:22:56;;;;;;;13.27;2.35;;;10.60;99.90;;;;;;4865297;29;20568;-89
2021/10/23 06:25:25;;;;;;;7.40;2.30;;;10.20;99.90;;;;;;4867443;29;20497;-89
2021/10/23 06:28:00;;;;;;;6.28;2.08;;;10.40;99.90;;;;;;4839868;29;20524;-90
2021/10/23 06:30:28;;;;;;;6.45;2.75;;;10.20;99.90;;;;;;4865210;29;20044;-88
2021/10/23 06:33:02;;;;;;;4.80;2.25;;;10.50;99.90;;;;;;4864982;29;20063;-91
2021/10/23 06:35:37;;;;;;;5.18;2.03;;;10.40;99.90;;;;;;4864908;29;20068;-90
2021/10/23 06:38:05;;;;;;;;;;;10.40;99.90;;;;;;4870519;29;20372;-89
2021/10/23 06:40:42;;;;;;;9.82;2.08;;;10.50;99.90;;;;;;4871106;29;19923;-90
2021/10/23 06:43:19;;;;;;;12.13;2.20;;;10.40;99.90;;;;;;4868010;29;20061;-88
2021/10/23 06:46:04;;;;;;;9.50;2.60;;;10.40;99.90;;;;;;4882522;29;20056;-91
2021/10/23 06:48:40;;;;;;;7.63;2.65;;;9.70;99.90;;;;;;4901027;29;20048;-90
2021/10/23 06:51:17;;;;;;;8.18;4.00;;;11.10;99.90;;;;;;4883043;29;20069;-90
2021/10/23 06:54:03;;;;;;;5.05;1.80;;;9.80;99.90;;;;;;4872754;29;20061;-88
2021/10/23 06:56:33;;;;;;;9.63;2.45;;;10.60;99.90;;;;;;4556556;24;10000151;-89
2021/10/23 06:59:10;;;;;;;5.68;2.75;;;10.50;99.90;;;;;;4870748;29;20061;-87
2021/10/23 07:01:49;;;;;;;6.88;2.15;;;10.50;99.90;;;;;;4885832;29;20497;-90
2021/10/23 07:04:22;;;;;;;4.47;1.90;;;10.50;99.90;;;;;;4911070;29;20411;-90
2021/10/23 07:07:05;;;;;;;2.90;1.63;;;10.50;99.90;;;;;;4897412;29;20056;-88
2021/10/23 07:09:48;;;;;;;6.40;2.23;;;10.50;99.90;;;;;;4897271;29;20048;-92
2021/10/23 07:12:23;;;;;;;6.30;3.05;;;10.60;99.90;;;;;;4909752;29;20060;-91
2021/10/23 07:15:03;;;;;;;5.53;2.53;;;10.50;99.90;;;;;;4907323;29;20045;-91
2021/10/23 07:17:48;;;;;;;5.10;2.20;;;10.50;99.90;;;;;;4899111;29;20063;-90
2021/10/23 07:20:29;;;;;;;4.43;2.15;;;10.70;99.90;;;;;;4908032;29;20040;-89
2021/10/23 07:23:32;;;;;;;21.45;2.55;;;10.80;99.90;;;;;;4904177;23;20074;-89
2021/10/23 07:26:16;;;;;;;4.72;2.80;;;10.60;99.90;;;;;;4887889;29;20061;-91
2021/10/23 07:29:14;;;;;;;8.48;2.15;;;10.70;99.90;;;;;;4847308;29;20064;-90
2021/10/23 07:32:01;;;;;;;2.10;1.85;;;10.70;99.90;;;;;;4876686;29;20067;-89
2021/10/23 07:34:42;;;;;;;5.43;1.83;;;10.80;99.90;;;;;;4844533;29;20056;-92
2021/10/23 07:37:15;;;;;;;7.32;1.90;;;10.70;99.90;;;;;;4856610;29;20096;-90
2021/10/23 07:40:06;;;;;;;6.55;2.60;;;10.70;99.90;;;;;;4848431;29;20056;-93
2021/10/23 07:42:40;;;;;;;9.00;2.10;;;11.70;99.90;;;;;;4861823;29;20246;-92
2021/10/23 07:45:17;;;;;;;4.18;2.38;;;10.80;99.90;;;;;;4848862;29;20076;-90
2021/10/23 07:47:50;;;;;;;6.88;2.53;;;10.80;99.90;;;;;;4853896;29;20064;-91
2021/10/23 07:50:20;;;;;;;7.50;2.20;;;10.80;99.90;;;;;;4849782;29;20045;-90
2021/10/23 07:52:48;;;;;;;6.22;2.67;;;10.90;99.90;;;;;;4848475;29;20049;-90
2021/10/23 07:55:17;;;;;;;6.68;2.58;;;10.90;99.90;;;;;;4873979;29;20057;-90
2021/10/23 07:57:46;;;;;;;5.70;2.00;;;11.00;99.90;;;;;;4822636;29;20061;-91
2021/10/23 08:00:18;;;;;;;2.97;1.67;;;10.90;99.90;;;;;;4859745;29;20069;-91
2021/10/23 08:06:16;;;;;;;6.07;2.10;;;11.10;99.90;;;;;;4854772;29;20071;-89
2021/10/23 08:08:48;;;;;;;7.88;2.70;;;10.50;99.90;;;;;;4872294;29;20401;-90
2021/10/23 08:11:18;;;;;;;11.45;2.38;;;11.20;99.90;;;;;;4881044;29;20091;-90
2021/10/23 08:13:53;;;;;;;2.42;1.98;;;11.20;99.90;;;;;;4843462;29;20045;-90
2021/10/23 08:16:23;;;;;;;3.47;2.35;;;11.30;99.90;;;;;;4889222;29;20479;-91
2021/10/23 08:19:26;;;;;;;8.80;2.08;;;11.30;99.90;;;;;;4864132;29;21375;-94
2021/10/23 08:22:06;;;;;;;3.22;1.70;;;11.60;99.90;;;;;;4867116;29;20387;-92
2021/10/23 08:29:05;;;;;;;5.18;2.33;;;11.50;99.90;;;;;;4861412;29;20063;-88
2021/10/23 08:31:56;;;;;;;7.20;1.65;;;11.60;99.90;;;;;;4870096;29;20049;-92
2021/10/23 08:34:32;;;;;;;4.43;1.73;;;11.60;99.90;;;;;;4886615;29;20165;-92
2021/10/23 08:37:51;;;;;;;8.63;1.98;;;11.70;99.90;;;;;;4884117;29;20068;-94
2021/10/23 08:40:37;;;;;;;4.07;1.75;;;11.70;99.90;;;;;;4878292;29;20436;-89
2021/10/23 08:43:25;;;;;;;6.05;3.53;;;11.70;99.90;;;;;;4888042;29;20055;-88
2021/10/23 08:46:21;;;;;;;5.03;2.22;;;11.80;99.90;;;;;;4900100;29;20049;-91
2021/10/23 08:48:58;;;;;;;3.05;1.58;;;11.90;99.90;;;;;;4902378;29;20063;-90
2021/10/23 08:51:31;;;;;;;9.70;1.98;;;11.90;99.90;;;;;;4872117;29;20048;-92
2021/10/23 08:54:07;;;;;;;6.35;2.25;;;11.60;99.90;;;;;;4873161;29;20051;-90
2021/10/23 08:56:50;;;;;;;4.88;1.65;;;12.00;99.90;;;;;;4887414;29;20044;-89
2021/10/23 08:59:20;;;;;;;;;;;12.30;99.90;;;;;;4892120;29;20060;-90
2021/10/23 09:02:02;;;;;;;5.68;2.75;;;12.20;99.90;;;;;;4888586;29;20695;-90
2021/10/23 09:04:38;;;;;;;5.25;1.90;;;12.30;99.90;;;;;;4885973;29;20049;-93
2021/10/23 09:07:58;;;;;;;4.50;1.73;;;12.30;99.90;;;;;;4885417;29;20148;-94
2021/10/23 09:23:58;;;;;;;10.65;2.70;;;12.70;99.90;;;;;;4843264;29;20046;-87
2021/10/23 09:35:25;;;;;;;3.08;1.73;;;13.00;99.90;;;;;;4797792;29;20047;-84
2021/10/23 09:38:30;;;;;;;6.60;1.90;;;14.30;99.90;;;;;;4823048;29;20069;-84
2021/10/23 09:41:35;;;;;;;;;;;;;;;;;;;;;
2021/10/23 09:45:05;;;;;;;4.68;1.50;;;13.00;99.90;;;;;;4819121;29;20769;-83
2021/10/23 09:47:50;;;;;;;4.03;1.52;;;12.80;99.90;;;;;;4827542;29;20055;-83
2021/10/23 09:52:05;;;;;;;3.30;1.58;;;13.10;99.90;;;;;;4771310;30;20060;-84
2021/10/23 09:55:04;;;;;;;2.97;1.40;;;13.10;99.90;;;;;;4768117;30;21074;-85
2021/10/23 10:19:13;;;;;;;2.45;0.90;;;13.80;99.90;;;;;;4756648;30;19936;-86
2021/10/23 10:23:24;;;;;;;;;;;;;;;;;;;;;
2021/10/23 10:30:58;;;;;;;;;;;;;;;;;;;;;
2021/10/23 10:39:40;;;;;;;2.05;1.30;;;13.50;99.90;;;;;;4673966;30;20293;-85
2021/10/23 10:42:57;;;;;;;2.70;1.15;;;13.70;99.90;;;;;;4720384;30;20056;-86
2021/10/23 11:00:14;;;;;;;;;;;;;;;;;;;;;
2021/10/23 11:03:36;;;;;;;4.57;1.35;;;13.90;99.90;;;;;;4693386;30;20062;-89
2021/10/23 11:06:34;;;;;;;4.47;1.00;;;14.00;99.90;;;;;;4787088;29;20353;-87
2021/10/23 11:11:05;;;;;;;2.17;1.20;;;13.80;99.90;;;;;;4772616;30;20056;-88
2021/10/23 11:14:43;;;;;;;;;;;;;;;;;;;;;
2021/10/23 11:17:21;;;;;;;1.35;1.02;;;14.10;99.90;;;;;;4926723;29;20059;-89
2021/10/23 11:20:11;;;;;;;4.00;1.23;;;14.10;99.90;;;;;;4897354;29;20056;-87
2021/10/23 11:23:06;;;;;;;3.50;1.20;;;14.20;99.90;;;;;;4918212;29;20070;-83
2021/10/23 11:26:15;;;;;;;4.28;1.00;;;13.50;99.90;;;;;;4929280;29;20059;-83
2021/10/23 11:28:59;;;;;;;3.83;1.27;;;13.60;99.90;;;;;;4904036;29;20080;-87
2021/10/23 11:36:22;;;;;;;3.08;1.27;;;14.40;99.90;;;;;;4894856;29;20048;-84
2021/10/23 11:39:31;;;;;;;3.75;0.90;;;14.50;99.90;;;;;;4910230;29;20067;-88
2021/10/23 11:43:38;;;;;;;;;;;;;;;;;;;;;
2021/10/23 11:46:57;;;;;;;2.33;1.02;;;14.20;98.80;;;;;;4891721;29;20060;-87
2021/10/23 11:49:46;;;;;;;3.97;1.00;;;14.70;99.50;;;;;;4891953;29;20712;-89
2021/10/23 11:53:32;;;;;;;2.60;1.17;;;14.70;99.40;;;;;;4928051;29;20046;-86
2021/10/23 11:57:06;;;;;;;6.82;1.10;;;14.70;99.00;;;;;;4900712;29;20051;-82
2021/10/23 12:00:04;;;;;;;2.42;1.35;;;13.90;99.70;;;;;;4928817;29;20052;-83
2021/10/23 12:03:15;;;;;;;4.63;1.63;;;14.90;99.70;;;;;;4839492;29;20095;-85
2021/10/23 12:07:35;;;;;;;5.97;1.50;;;15.00;99.80;;;;;;4819825;29;20425;-86
2021/10/23 12:10:18;;;;;;;2.97;1.00;;;15.10;98.40;;;;;;4821623;29;20073;-84
2021/10/23 12:13:35;;;;;;;;;;;;;;;;;;;;;
2021/10/23 12:16:49;;;;;;;3.70;1.45;;;15.10;98.70;;;;;;4855325;29;20627;-85
2021/10/23 12:19:52;;;;;;;4.43;1.30;;;15.20;99.00;;;;;;4872753;29;20046;-86
2021/10/23 12:28:01;;;;;;;;;;;;;;;;;;;;;
2021/10/23 12:31:31;;;;;;;;;;;;;;;;;;;;;
2021/10/23 12:34:18;;;;;;;5.38;1.50;;;15.50;98.70;;;;;;4918567;29;20519;-86
2021/10/23 12:37:10;;;;;;;3.20;1.35;;;15.50;99.30;;;;;;4918617;29;20050;-84
2021/10/23 12:40:46;;;;;;;1.73;0.95;;;15.60;97.90;;;;;;4912290;29;20058;-85
2021/10/23 12:43:43;;;;;;;6.28;0.98;;;15.50;97.80;;;;;;4926602;29;20043;-86
2021/10/23 12:46:40;;;;;;;3.05;1.23;;;14.60;98.60;;;;;;4948319;29;20937;-85
2021/10/23 12:50:44;;;;;;;4.60;1.25;;;14.90;98.50;;;;;;4927435;29;20050;-84
2021/10/23 12:53:52;;;;;;;2.63;1.25;;;15.60;98.20;;;;;;4943791;29;20048;-84
2021/10/23 12:56:22;;;;;;;9.10;2.50;;;16.10;98.50;;;;;;4918844;29;20062;-82
2021/10/23 12:59:14;;;;;;;2.90;0.88;;;15.60;98.20;;;;;;4963710;29;20047;-82
2021/10/23 13:02:17;;;;;;;16.40;2.75;;;15.50;97.90;;;;;;4933412;29;20065;-85
2021/10/23 13:04:49;;;;;;;2.22;1.00;;;15.60;98.10;;;;;;4915809;29;20055;-83
2021/10/23 13:07:33;;;;;;;4.32;1.75;;;15.60;97.90;;;;;;4953205;29;20068;-84
2021/10/23 13:10:16;;;;;;;11.60;1.48;;;15.60;97.70;;;;;;4937876;29;20039;-83
2021/10/23 13:13:11;;;;;;;3.78;1.90;;;15.60;98.00;;;;;;4949679;29;20058;-84
2021/10/23 13:16:20;;;;;;;3.72;1.45;;;15.70;98.80;;;;;;4930542;29;20056;-85
2021/10/23 13:18:50;;;;;;;5.65;1.40;;;15.70;98.20;;;;;;4953391;29;20289;-84
2021/10/23 13:21:23;;;;;;;7.63;1.77;;;15.60;98.50;;;;;;4920221;29;20058;-85
2021/10/23 13:24:22;;;;;;;;;;;;;;;;;;;;;
2021/10/23 13:27:43;;;;;;;7.57;2.17;;;15.60;97.70;;;;;;4940917;29;20040;-85
2021/10/23 13:30:42;;;;;;;5.75;1.58;;;15.20;98.10;;;;;;4938803;29;20067;-84
2021/10/23 13:33:15;;;;;;;1.67;1.20;;;14.40;98.30;;;;;;4931905;29;20219;-84
2021/10/23 13:36:06;;;;;;;2.00;1.17;;;15.70;98.60;;;;;;4935742;29;20052;-83
2021/10/23 13:38:41;;;;;;;6.70;2.70;;;15.80;98.80;;;;;;4946083;29;20102;-82
2021/10/23 13:41:16;;;;;;;5.22;1.65;;;15.80;98.70;;;;;;4925408;29;20060;-85
2021/10/23 13:43:55;;;;;;;11.95;1.92;;;15.80;98.60;;;;;;4920653;29;20078;-87
2021/10/23 13:47:34;;;;;;;;;;;;;;;;;;;;;
2021/10/23 13:50:25;;;;;;;8.20;1.77;;;15.80;98.80;;;;;;4944743;29;20054;-82
2021/10/23 13:53:16;;;;;;;23.92;3.67;;;15.70;98.80;;;;;;4942473;29;20047;-85
2021/10/23 13:56:13;;;;;;;11.40;1.98;;;15.70;99.10;;;;;;4905314;29;20055;-87
2021/10/23 14:00:05;;;;;;;;;;;;;;;;;;;;;
2021/10/23 14:03:19;;;;;;;;;;;;;;;;;;;;;
2021/10/23 14:06:16;;;;;;;5.68;1.75;;;15.50;98.60;;;;;;4942697;29;20047;-85
2021/10/23 14:08:49;;;;;;;6.53;1.40;;;15.50;98.50;;;;;;4943159;29;20058;-87
2021/10/23 14:16:04;;;;;;;3.53;1.35;;;15.40;99.60;;;;;;4944221;29;20054;-83
2021/10/23 14:18:43;;;;;;;6.97;1.60;;;15.50;99.10;;;;;;4930710;29;20061;-86
2021/10/23 14:21:33;;;;;;;;;;;;;;;;;;;;;
2021/10/23 14:24:51;;;;;;;2.75;1.38;;;15.40;99.40;;;;;;4950857;29;20040;-88
2021/10/23 14:27:56;;;;;;;4.70;1.65;;;15.30;99.50;;;;;;4916038;29;20052;-87
2021/10/23 14:30:50;;;;;;;3.05;1.20;;;15.30;99.40;;;;;;4945944;29;20052;-86
2021/10/23 14:33:58;;;;;;;3.50;1.20;;;15.30;99.30;;;;;;4934896;29;20249;-87
2021/10/23 14:36:50;;;;;;;6.70;1.50;;;15.20;99.50;;;;;;4943523;29;20051;-85
2021/10/23 14:39:49;;;;;;;4.10;1.40;;;15.10;99.80;;;;;;4949265;29;20043;-86
2021/10/23 14:43:22;;;;;;;9.00;3.72;;;15.20;99.90;;;;;;4931435;29;20055;-86
2021/10/23 14:46:32;;;;;;;5.05;1.25;;;15.00;99.40;;;;;;4944902;29;20040;-86
2021/10/23 14:57:10;;;;;;;5.28;2.15;;;15.20;99.90;;;;;;4884243;29;20061;-87
2021/10/23 15:00:16;;;;;;;5.47;1.65;;;14.80;99.90;;;;;;4877280;29;20043;-88
2021/10/23 15:03:30;;;;;;;6.72;1.75;;;14.90;99.90;;;;;;4865446;29;20054;-86
2021/10/23 15:10:17;;;;;;;3.45;2.13;;;15.10;99.90;;;;;;4876065;29;20214;-86
2021/10/23 15:18:25;;;;;;;6.72;2.47;;;15.70;99.90;;;;;;4842270;29;20058;-82
2021/10/23 15:20:55;;;;;;;4.00;1.65;;;14.80;99.90;;;;;;4840855;29;20050;-85
2021/10/23 15:23:28;;;;;;;7.00;2.40;;;14.70;99.90;;;;;;4846557;29;20062;-84
2021/10/23 15:26:03;;;;;;;4.13;1.77;;;15.60;99.90;;;;;;4845734;29;20057;-85
2021/10/23 15:28:56;;;;;;;4.68;1.58;;;14.60;99.90;;;;;;4948261;29;20066;-82
2021/10/23 15:31:38;;;;;;;11.43;2.00;;;14.20;99.90;;;;;;4943401;29;20047;-86
2021/10/23 15:34:07;;;;;;;5.82;1.40;;;14.60;99.90;;;;;;4945446;29;20051;-83
2021/10/23 15:36:35;;;;;;;3.72;1.73;;;14.50;99.90;;;;;;4914388;29;20055;-84
2021/10/23 15:39:10;;;;;;;4.38;2.25;;;14.40;99.90;;;;;;4936730;29;20057;-84
2021/10/23 15:41:49;;;;;;;11.00;1.80;;;14.60;99.90;;;;;;4934678;29;20051;-86
2021/10/23 15:44:24;;;;;;;5.85;2.05;;;14.40;99.90;;;;;;4932643;29;20052;-85
2021/10/23 15:47:20;;;;;;;;;;;;;;;;;;;;;
2021/10/23 15:50:01;;;;;;;6.70;2.60;;;14.40;99.90;;;;;;4939155;29;20067;-84
2021/10/23 15:52:45;;;;;;;6.30;1.85;;;14.30;99.90;;;;;;4927371;29;20054;-88
2021/10/23 15:56:05;;;;;;;;;;;;;;;;;;;;;
2021/10/23 15:59:17;;;;;;;;;;;;;;;;;;;;;
2021/10/23 16:06:18;;;;;;;;;;;;;;;;;;;;;
2021/10/23 16:10:11;;;;;;;;;;;14.20;99.90;;;;;;4860503;29;20154;-86
2021/10/23 16:18:50;;;;;;;5.72;2.05;;;14.20;99.90;;;;;;4815005;29;20044;-86
2021/10/23 16:27:37;;;;;;;;;;;;;;;;;;;;;
2021/10/23 16:36:43;;;;;;;;;;;;;;;;;;;;;
2021/10/23 16:45:16;;;;;;;10.00;3.10;;;13.60;99.90;;;;;;4802275;29;20058;-88
2021/10/23 16:49:09;;;;;;;9.07;3.10;;;13.40;99.90;;;;;;4870336;29;20045;-88
2021/10/23 16:53:00;;;;;;;6.82;3.22;;;13.40;99.90;;;;;;4883741;29;20051;-89
2021/10/23 17:00:34;;;;;;;;;;;;;;;;;;;;;
2021/10/23 17:04:10;;;;;;;;;;;;;;;;;;;;;
2021/10/23 17:08:17;;;;;;;;;;;12.20;99.90;;;;;;4737810;30;20063;-87
2021/10/23 17:16:40;;;;;;;21.15;7.32;;;13.00;99.90;;;;;;4761771;30;20051;-86